Time;durP1;ratioP1;P1;durP2;ratioP2;P2;SDS_P1;SDS_P2;PMS_P1;PMS_P2;Temp;Humidity;BMP_temperature;BMP_pressure;BME280_temperature;BME280_humidity;BME280_pressure;Samples;Min_cycle;Max_cycle;Signal;HPM_P1;HPM_P2
2022/08/28 00:01:29;;;;;;;17.95;9.50;;;;;;;15.09;73.32;101801.94;5050063;28;20029;-59
2022/08/28 00:03:54;;;;;;;21.17;9.90;;;;;;;15.09;73.01;101801.94;5050703;28;20021;-60
2022/08/28 00:06:20;;;;;;;20.80;9.80;;;;;;;15.03;74.10;101800.41;5050172;28;20084;-59
2022/08/28 00:08:45;;;;;;;20.60;10.15;;;;;;;15.01;73.85;101804.66;5050678;28;20099;-60
2022/08/28 00:11:10;;;;;;;21.05;10.27;;;;;;;14.89;74.28;101802.41;5050016;28;20025;-59
2022/08/28 00:13:36;;;;;;;20.33;10.60;;;;;;;14.87;74.16;101799.09;5050298;28;20124;-59
2022/08/28 00:16:02;;;;;;;21.00;10.50;;;;;;;14.86;74.53;101798.28;5050498;28;20100;-60
2022/08/28 00:18:30;;;;;;;20.35;10.65;;;;;;;14.83;74.74;101807.25;5050293;28;20122;-60
2022/08/28 00:20:56;;;;;;;20.13;10.38;;;;;;;14.75;74.79;101796.84;5050595;28;20029;-61
2022/08/28 00:23:22;;;;;;;21.02;10.88;;;;;;;14.77;75.03;101803.75;5049557;28;20104;-60
2022/08/28 00:25:48;;;;;;;20.70;9.95;;;;;;;14.74;74.97;101798.78;5050057;28;20049;-58
2022/08/28 00:28:14;;;;;;;23.05;10.25;;;;;;;14.72;75.18;101797.47;5050827;28;20033;-59
2022/08/28 00:30:45;;;;;;;20.05;10.63;;;;;;;14.60;75.16;101789.63;5050489;28;20488;-59
2022/08/28 00:33:29;;;;;;;18.80;10.30;;;;;;;14.56;75.91;101802.50;5049994;28;20104;-59
2022/08/28 00:35:55;;;;;;;20.15;10.13;;;;;;;14.48;76.25;101807.66;5050355;28;20524;-58
2022/08/28 00:38:22;;;;;;;21.50;10.65;;;;;;;14.49;76.31;101802.94;5049828;28;20029;-58
2022/08/28 00:40:51;;;;;;;25.27;10.85;;;;;;;14.48;76.70;101804.06;5049832;28;20388;-60
2022/08/28 00:43:41;;;;;;;19.60;10.60;;;;;;;14.41;77.09;101804.47;5049502;28;20025;-58
2022/08/28 00:46:10;;;;;;;19.75;10.30;;;;;;;14.33;77.33;101807.97;5050144;28;20518;-60
2022/08/28 00:48:36;;;;;;;22.80;11.13;;;;;;;14.24;77.74;101801.47;5049917;28;20116;-59
2022/08/28 00:53:47;;;;;;;20.77;10.75;;;;;;;14.25;77.96;101808.69;5050366;28;20114;-59
2022/08/28 00:56:15;;;;;;;22.27;11.00;;;;;;;14.16;78.17;101791.88;5050831;28;20493;-59
2022/08/28 00:58:43;;;;;;;22.55;10.98;;;;;;;14.30;77.71;101800.22;5054227;28;20430;-59
2022/08/28 01:01:09;;;;;;;20.15;10.88;;;;;;;14.30;77.89;101805.81;5053611;28;20056;-60
2022/08/28 01:03:36;;;;;;;20.42;10.75;;;;;;;14.26;77.92;101810.34;5053614;28;20473;-60
2022/08/28 01:06:01;;;;;;;20.67;10.38;;;;;;;14.29;77.95;101812.50;5053695;28;20047;-59
2022/08/28 01:08:29;;;;;;;20.52;10.43;;;;;;;14.23;77.82;101808.97;5053043;28;20029;-59
2022/08/28 01:10:57;;;;;;;20.85;10.85;;;;;;;14.18;78.31;101804.34;5053256;28;20462;-59
2022/08/28 01:13:25;;;;;;;22.52;10.63;;;;;;;14.25;78.52;101817.03;5053366;28;20107;-58
2022/08/28 01:15:51;;;;;;;21.30;10.45;;;;;;;14.19;78.51;101821.88;5052907;28;20086;-59
2022/08/28 01:18:18;;;;;;;21.00;10.32;;;;;;;14.20;78.59;101820.75;5078187;22;20151;-56
2022/08/28 01:21:05;;;;;;;22.33;10.40;;;;;;;14.20;78.23;101815.19;5073953;28;20461;-57
2022/08/28 01:23:50;;;;;;;20.40;10.35;;;;;;;14.18;78.52;101826.59;5073842;28;20044;-53
2022/08/28 01:26:16;;;;;;;21.88;10.73;;;;;;;14.14;79.15;101816.38;5073912;28;20047;-55
2022/08/28 01:28:42;;;;;;;22.42;10.77;;;;;;;14.14;79.61;101814.44;5074811;28;20492;-57
2022/08/28 01:31:11;;;;;;;23.30;10.90;;;;;;;14.11;79.46;101822.59;5074593;28;20025;-57
2022/08/28 01:33:38;;;;;;;21.80;10.93;;;;;;;14.12;79.62;101818.69;5074381;28;20028;-56
2022/08/28 01:36:03;;;;;;;22.30;10.55;;;;;;;14.11;79.41;101826.19;5073547;28;20467;-56
2022/08/28 01:38:29;;;;;;;21.17;10.98;;;;;;;14.04;80.16;101817.41;5074223;28;20063;-56
2022/08/28 01:40:56;;;;;;;22.98;10.68;;;;;;;14.03;80.01;101824.94;5074195;28;20124;-54
2022/08/28 01:43:25;;;;;;;21.48;10.95;;;;;;;13.95;80.49;101820.06;5073762;28;20400;-55
2022/08/28 01:45:58;;;;;;;20.88;10.48;;;;;;;13.98;80.52;101833.38;5074433;28;20025;-56
2022/08/28 01:48:25;;;;;;;21.60;10.63;;;;;;;13.98;80.86;101821.44;5074347;28;20068;-55
2022/08/28 01:50:51;;;;;;;23.10;10.85;;;;;;;13.95;80.22;101830.38;5073802;28;20029;-56
2022/08/28 01:53:19;;;;;;;19.63;10.10;;;;;;;13.85;80.85;101823.88;5073425;28;20025;-54
2022/08/28 01:55:44;;;;;;;21.55;10.10;;;;;;;13.89;80.77;101832.41;5073290;28;20541;-55
2022/08/28 01:58:11;;;;;;;22.00;10.85;;;;;;;13.86;81.57;101835.81;5055472;28;20028;-56
2022/08/28 02:00:37;;;;;;;22.02;10.77;;;;;;;13.83;81.09;101831.69;5073564;28;20089;-57
2022/08/28 02:03:03;;;;;;;21.67;10.60;;;;;;;13.85;81.13;101834.16;5073594;28;20063;-56
2022/08/28 02:05:31;;;;;;;21.52;10.50;;;;;;;13.83;81.26;101831.69;5073544;28;20115;-54
2022/08/28 02:07:57;;;;;;;21.17;10.75;;;;;;;13.70;81.70;101841.63;5072949;28;20111;-56
2022/08/28 02:10:25;;;;;;;21.73;10.65;;;;;;;13.65;82.30;101835.31;5073570;28;20086;-55
2022/08/28 02:12:52;;;;;;;21.13;10.93;;;;;;;13.59;82.14;101833.78;5054992;28;20029;-55
2022/08/28 02:15:18;;;;;;;20.90;10.55;;;;;;;13.56;83.00;101840.72;5073181;28;20036;-56
2022/08/28 02:17:43;;;;;;;18.92;10.18;;;;;;;13.52;82.53;101842.47;5079771;28;20071;-57
2022/08/28 02:20:09;;;;;;;22.13;11.10;;;;;;;13.50;82.84;101850.28;5093496;28;20063;-55
2022/08/28 02:22:34;;;;;;;22.25;11.00;;;;;;;13.49;82.55;101854.19;5093176;28;20032;-55
2022/08/28 02:25:00;;;;;;;20.88;9.93;;;;;;;13.45;83.04;101853.97;5093400;28;20043;-58
2022/08/28 02:27:25;;;;;;;20.40;10.57;;;;;;;13.44;83.00;101848.72;5093910;28;20028;-58
2022/08/28 02:29:50;;;;;;;19.08;10.18;;;;;;;13.37;83.78;101851.84;5093710;28;20464;-57
2022/08/28 02:32:17;;;;;;;21.08;11.35;;;;;;;13.29;83.81;101855.31;5093659;28;20467;-58
2022/08/28 02:34:42;;;;;;;21.45;10.50;;;;;;;13.24;83.79;101853.44;5093175;28;20027;-56
2022/08/28 02:37:10;;;;;;;20.92;10.68;;;;;;;13.23;84.22;101855.38;5093409;28;20436;-58
2022/08/28 02:39:35;;;;;;;20.50;10.02;;;;;;;13.23;83.88;101855.38;5092601;28;20075;-55
2022/08/28 02:42:01;;;;;;;22.48;10.73;;;;;;;13.21;83.92;101851.25;5093052;28;20499;-58
2022/08/28 02:44:26;;;;;;;21.35;10.18;;;;;;;13.17;84.54;101853.78;5093909;28;20074;-58
2022/08/28 02:46:51;;;;;;;20.30;10.43;;;;;;;13.15;84.47;101844.91;5093542;28;20023;-57
2022/08/28 02:49:17;;;;;;;20.60;10.23;;;;;;;13.09;85.07;101851.69;5093370;28;20086;-56
2022/08/28 02:51:42;;;;;;;21.27;10.48;;;;;;;13.01;85.67;101861.50;5092753;28;20047;-56
2022/08/28 02:54:08;;;;;;;20.17;10.68;;;;;;;13.01;85.37;101849.56;5092606;28;20109;-57
2022/08/28 02:56:33;;;;;;;21.65;10.68;;;;;;;13.01;85.51;101852.34;5092653;28;20016;-56
2022/08/28 02:58:58;;;;;;;21.05;10.68;;;;;;;12.99;85.62;101847.06;5093185;28;20342;-57
2022/08/28 03:01:24;;;;;;;20.25;10.43;;;;;;;13.01;85.72;101847.63;5093316;28;20380;-56
2022/08/28 03:03:49;;;;;;;20.58;10.15;;;;;;;13.04;85.57;101846.19;5093077;28;20024;-56
2022/08/28 03:06:15;;;;;;;21.55;10.60;;;;;;;13.01;85.66;101849.56;5092972;28;20027;-55
2022/08/28 03:08:41;;;;;;;20.88;10.55;;;;;;;12.97;85.47;101843.78;5092389;28;20028;-57
2022/08/28 03:11:07;;;;;;;21.30;10.43;;;;;;;13.01;85.96;101855.13;5091799;28;20081;-55
2022/08/28 03:13:32;;;;;;;18.60;10.00;;;;;;;12.96;85.77;101850.47;5091735;28;20099;-55
2022/08/28 03:15:58;;;;;;;24.02;11.00;;;;;;;12.91;86.20;101856.91;5092239;28;20034;-55
2022/08/28 03:18:25;;;;;;;21.15;10.45;;;;;;;12.84;86.26;101850.06;5091761;28;20138;-56
2022/08/28 03:20:51;;;;;;;19.33;10.05;;;;;;;12.83;86.03;101857.59;5092031;28;20024;-55
2022/08/28 03:23:26;;;;;;;20.83;11.07;;;;;;;12.78;86.90;101852.91;5091891;28;20027;-55
2022/08/28 03:26:05;;;;;;;21.27;10.52;;;;;;;12.70;87.26;101852.72;5092040;28;20032;-55
2022/08/28 03:28:37;;;;;;;22.27;10.40;;;;;;;12.75;86.62;101863.78;5073827;28;20380;-55
2022/08/28 03:31:04;;;;;;;20.60;10.20;;;;;;;12.74;86.85;101856.59;5091462;28;20025;-54
2022/08/28 03:33:30;;;;;;;20.50;10.27;;;;;;;12.73;86.97;101866.84;5091932;28;20507;-56
2022/08/28 03:35:56;;;;;;;19.42;10.75;;;;;;;12.72;87.27;101869.94;5091892;28;20032;-55
2022/08/28 03:38:21;;;;;;;20.52;10.63;;;;;;;12.77;87.32;101867.91;5091961;28;20035;-55
2022/08/28 03:40:47;;;;;;;23.08;11.18;;;;;;;12.71;87.29;101869.09;5091464;28;20038;-54
2022/08/28 03:43:16;;;;;;;20.35;10.32;;;;;;;12.74;87.19;101873.25;5091899;28;20098;-56
2022/08/28 03:45:51;;;;;;;22.42;10.82;;;;;;;12.61;87.77;101870.03;5091910;28;20071;-57
2022/08/28 03:48:17;;;;;;;20.67;10.45;;;;;;;12.69;87.63;101879.69;5092430;28;20082;-56
2022/08/28 03:50:43;;;;;;;20.10;10.50;;;;;;;12.62;87.39;101885.59;5092259;28;20028;-55
2022/08/28 03:53:08;;;;;;;21.05;10.38;;;;;;;12.59;87.56;101886.16;5092328;28;20077;-56
2022/08/28 03:55:33;;;;;;;21.80;10.75;;;;;;;12.60;87.81;101887.81;5091761;28;20031;-56
2022/08/28 03:57:59;;;;;;;22.25;11.23;;;;;;;12.56;87.28;101878.44;5092000;28;20024;-56
2022/08/28 04:00:25;;;;;;;20.85;10.88;;;;;;;12.51;87.96;101884.03;5091594;28;20020;-56
2022/08/28 04:02:50;;;;;;;21.73;11.30;;;;;;;12.51;87.74;101883.22;5090922;28;20024;-55
2022/08/28 04:05:16;;;;;;;22.85;10.93;;;;;;;12.47;88.46;101888.50;5090980;28;20349;-57
2022/08/28 04:07:41;;;;;;;21.27;11.35;;;;;;;12.45;88.10;101886.03;5091785;28;20020;-58
2022/08/28 04:10:07;;;;;;;21.73;10.88;;;;;;;12.44;88.13;101883.56;5073606;28;20032;-53
2022/08/28 04:12:32;;;;;;;22.25;11.40;;;;;;;12.40;88.50;101882.47;5091211;28;20491;-55
2022/08/28 04:14:58;;;;;;;21.38;10.90;;;;;;;12.39;88.90;101892.75;5090834;28;20028;-57
2022/08/28 04:17:24;;;;;;;19.92;10.50;;;;;;;12.36;88.57;101889.75;5091125;28;20446;-56
2022/08/28 04:19:53;;;;;;;20.58;10.60;;;;;;;12.33;88.73;101893.91;5092465;28;20131;-54
2022/08/28 04:22:18;;;;;;;21.98;10.98;;;;;;;12.31;88.71;101883.13;5091721;28;20036;-56
2022/08/28 04:24:44;;;;;;;19.88;10.57;;;;;;;12.34;88.78;101890.03;5091977;28;20141;-57
2022/08/28 04:27:09;;;;;;;21.42;11.00;;;;;;;12.30;88.96;101887.00;5090934;28;20491;-56
2022/08/28 04:29:34;;;;;;;21.02;11.35;;;;;;;12.21;89.35;101891.53;5092297;28;20042;-55
2022/08/28 04:32:01;;;;;;;22.00;10.77;;;;;;;12.19;89.90;101898.50;5095164;28;20468;-54
2022/08/28 04:34:26;;;;;;;23.50;11.43;;;;;;;12.14;89.85;101897.41;5095158;28;20052;-57
2022/08/28 04:36:52;;;;;;;19.60;10.73;;;;;;;12.13;90.81;101892.16;5095370;28;20055;-56
2022/08/28 04:39:18;;;;;;;20.60;10.70;;;;;;;12.13;90.23;101893.00;5095342;28;20073;-56
2022/08/28 04:41:43;;;;;;;20.25;10.77;;;;;;;12.10;90.00;101895.50;5076861;28;20053;-56
2022/08/28 04:44:08;;;;;;;20.75;10.80;;;;;;;12.05;90.78;101903.91;5094698;28;20034;-57
2022/08/28 04:46:34;;;;;;;24.38;11.60;;;;;;;12.06;90.88;101908.31;5094373;28;20028;-57
2022/08/28 04:49:00;;;;;;;23.35;11.45;;;;;;;12.04;90.24;101905.00;5094320;28;20274;-56
2022/08/28 04:51:26;;;;;;;21.20;10.70;;;;;;;12.03;90.84;101901.41;5094470;28;20028;-56
2022/08/28 04:53:51;;;;;;;23.20;10.93;;;;;;;12.05;91.08;101912.22;5094703;28;20028;-56
2022/08/28 04:56:17;;;;;;;22.95;10.88;;;;;;;12.04;90.87;101908.63;5094840;28;20426;-56
2022/08/28 04:58:43;;;;;;;24.45;10.82;;;;;;;11.98;91.55;101907.84;5094298;28;20032;-56
2022/08/28 05:01:19;;;;;;;22.42;10.90;;;;;;;11.86;91.33;101891.50;5094316;28;20036;-56
2022/08/28 05:03:46;;;;;;;21.02;10.55;;;;;;;11.91;91.84;101901.75;5094733;28;20039;-55
2022/08/28 05:06:14;;;;;;;20.00;10.45;;;;;;;11.94;91.77;101915.03;5094656;28;20028;-56
2022/08/28 05:08:40;;;;;;;21.40;10.70;;;;;;;11.99;91.76;101914.19;5094427;28;20020;-56
2022/08/28 05:11:15;;;;;;;23.38;10.80;;;;;;;11.94;92.23;101909.50;5093794;28;20028;-56
2022/08/28 05:13:41;;;;;;;21.73;10.40;;;;;;;12.02;91.74;101916.41;5094330;28;20035;-56
2022/08/28 05:16:07;;;;;;;20.58;10.30;;;;;;;11.99;91.77;101923.38;5094509;28;20158;-55
2022/08/28 05:18:32;;;;;;;23.45;11.02;;;;;;;11.98;92.01;101926.41;5093838;28;20127;-55
2022/08/28 05:20:57;;;;;;;22.40;10.25;;;;;;;12.01;91.92;101920.28;5076388;28;20024;-55
2022/08/28 05:23:23;;;;;;;24.25;10.90;;;;;;;12.01;91.97;101926.66;5094165;28;20024;-56
2022/08/28 05:25:48;;;;;;;19.95;10.73;;;;;;;11.99;91.76;101928.91;5076054;28;20024;-56
2022/08/28 05:28:18;;;;;;;21.40;11.20;;;;;;;12.03;91.86;101931.94;5093997;28;20028;-57
2022/08/28 05:30:44;;;;;;;21.73;11.30;;;;;;;12.05;91.70;101937.19;5093746;28;20024;-57
2022/08/28 05:33:12;;;;;;;20.75;10.80;;;;;;;12.08;92.10;101937.41;5093642;28;20505;-55
2022/08/28 05:35:39;;;;;;;20.70;10.40;;;;;;;12.04;91.62;101939.13;5093994;28;20036;-56
2022/08/28 05:38:06;;;;;;;22.52;11.00;;;;;;;12.11;91.78;101938.78;5093264;28;20030;-55
2022/08/28 05:40:32;;;;;;;21.45;10.80;;;;;;;12.07;92.30;101943.28;5093417;28;20094;-56
2022/08/28 05:42:58;;;;;;;21.08;10.25;;;;;;;12.07;91.97;101941.31;5093430;28;20035;-57
2022/08/28 05:45:23;;;;;;;20.15;10.45;;;;;;;12.09;92.27;101943.81;5093532;28;20028;-54
2022/08/28 05:47:50;;;;;;;21.63;11.35;;;;;;;12.12;92.20;101948.75;5093286;28;20107;-58
2022/08/28 05:50:17;;;;;;;23.02;11.23;;;;;;;12.12;92.16;101940.44;5094119;28;20024;-56
2022/08/28 05:52:42;;;;;;;22.10;11.35;;;;;;;12.13;92.27;101947.66;5093845;28;20506;-57
2022/08/28 05:55:10;;;;;;;22.35;11.88;;;;;;;12.07;92.44;101944.09;5093697;28;20059;-57
2022/08/28 05:57:36;;;;;;;21.23;11.38;;;;;;;12.10;92.67;101949.06;5093766;28;20099;-55
2022/08/28 06:00:04;;;;;;;20.80;11.38;;;;;;;12.05;92.87;101938.00;5093908;28;20028;-56
2022/08/28 06:02:29;;;;;;;22.10;11.15;;;;;;;12.17;92.43;101949.56;5093005;28;20050;-54
2022/08/28 06:04:54;;;;;;;20.60;11.68;;;;;;;12.23;92.08;101952.31;5093416;28;20528;-55
2022/08/28 06:07:20;;;;;;;22.00;11.82;;;;;;;12.27;92.18;101953.34;5093007;28;20020;-53
2022/08/28 06:09:45;;;;;;;21.50;11.10;;;;;;;12.33;91.93;101964.13;5093150;28;20024;-54
2022/08/28 06:12:11;;;;;;;21.88;11.50;;;;;;;12.39;92.10;101956.59;5093216;28;20049;-56
2022/08/28 06:14:36;;;;;;;21.42;11.68;;;;;;;12.43;91.83;101957.66;5093358;28;20040;-55
2022/08/28 06:17:03;;;;;;;20.67;11.13;;;;;;;12.51;91.96;101966.47;5092418;28;20080;-55
2022/08/28 06:19:30;;;;;;;23.65;11.23;;;;;;;12.57;91.50;101956.97;5093183;28;20027;-55
2022/08/28 06:21:59;;;;;;;21.38;11.45;;;;;;;12.67;91.51;101958.81;5092397;28;20028;-56
2022/08/28 06:24:26;;;;;;;21.90;11.30;;;;;;;12.76;91.61;101970.94;5093550;28;20051;-56
2022/08/28 06:26:52;;;;;;;23.10;10.65;;;;;;;12.87;91.24;101963.34;5093506;28;20106;-56
2022/08/28 06:29:18;;;;;;;22.98;10.75;;;;;;;13.01;90.35;101960.69;5093515;28;20527;-57
2022/08/28 06:31:44;;;;;;;24.27;11.80;;;;;;;13.11;89.98;101966.13;5093267;28;20034;-56
2022/08/28 06:34:09;;;;;;;22.63;10.57;;;;;;;13.21;89.98;101968.78;5093419;28;20016;-56
2022/08/28 06:36:39;;;;;;;21.33;10.60;;;;;;;13.33;88.57;101959.16;5075228;28;20028;-56
2022/08/28 06:39:06;;;;;;;22.08;10.57;;;;;;;13.41;88.27;101964.94;5093505;28;20028;-57
2022/08/28 06:41:32;;;;;;;21.85;9.80;;;;;;;13.53;87.64;101966.47;5093361;28;20024;-57
2022/08/28 06:43:58;;;;;;;20.17;9.82;;;;;;;13.63;87.12;101966.31;5092840;28;20429;-55
2022/08/28 06:46:25;;;;;;;21.08;9.88;;;;;;;13.78;87.42;101968.06;5093060;28;20027;-56
2022/08/28 06:48:50;;;;;;;22.90;10.43;;;;;;;13.92;86.63;101970.06;5093099;28;20097;-55
2022/08/28 06:51:16;;;;;;;22.10;9.90;;;;;;;14.02;85.42;101967.13;5092989;28;20028;-56
2022/08/28 06:53:43;;;;;;;21.08;9.90;;;;;;;14.18;85.17;101967.72;5091730;28;20024;-55
2022/08/28 06:56:13;;;;;;;20.42;9.60;;;;;;;14.27;84.51;101985.38;5092991;28;20036;-56
2022/08/28 06:58:41;;;;;;;21.08;9.88;;;;;;;14.35;83.52;101967.16;5092878;28;20039;-56
2022/08/28 07:01:17;;;;;;;20.67;9.65;;;;;;;14.46;82.85;101976.16;5092318;28;20138;-56
2022/08/28 07:03:44;;;;;;;21.00;9.60;;;;;;;14.61;82.76;101980.63;5092857;28;20092;-57
2022/08/28 07:06:12;;;;;;;19.90;8.80;;;;;;;14.68;81.86;101983.88;5092670;28;20037;-56
2022/08/28 07:08:38;;;;;;;22.05;9.63;;;;;;;14.81;81.02;101979.44;5092555;28;20027;-56
2022/08/28 07:11:15;;;;;;;21.75;9.88;;;;;;;14.86;81.10;101976.59;5092655;28;20030;-56
2022/08/28 07:13:42;;;;;;;19.42;9.23;;;;;;;15.04;80.63;101971.22;5092879;28;20051;-55
2022/08/28 07:16:08;;;;;;;19.60;8.98;;;;;;;15.17;79.81;101975.16;5092136;28;20169;-56
2022/08/28 07:18:34;;;;;;;21.67;9.63;;;;;;;15.22;78.42;101972.22;5092402;28;20169;-56
2022/08/28 07:20:59;;;;;;;20.77;9.45;;;;;;;15.24;77.97;101976.38;5092242;28;20031;-55
2022/08/28 07:23:30;;;;;;;21.00;9.73;;;;;;;15.30;78.16;101982.69;5092733;28;20051;-56
2022/08/28 07:25:55;;;;;;;17.55;8.68;;;;;;;15.42;77.58;101984.94;5092404;28;20594;-57
2022/08/28 07:28:21;;;;;;;16.73;8.70;;;;;;;15.52;77.46;101986.66;5092479;28;20047;-56
2022/08/28 07:30:56;;;;;;;22.35;8.75;;;;;;;15.57;76.22;101970.66;5091703;28;20025;-56
2022/08/28 07:33:22;;;;;;;18.90;8.50;;;;;;;15.68;75.79;101982.41;5092667;28;20081;-56
2022/08/28 07:35:49;;;;;;;19.38;8.43;;;;;;;15.77;74.98;101992.84;5092286;28;20028;-57
2022/08/28 07:38:14;;;;;;;21.35;8.82;;;;;;;15.83;74.69;101983.19;5091794;28;20432;-55
2022/08/28 07:40:40;;;;;;;20.00;8.55;;;;;;;15.92;73.26;101988.91;5092141;28;20039;-56
2022/08/28 07:45:56;;;;;;;;;;;;;;;15.99;73.30;101992.88;5092650;28;20098;-56
2022/08/28 07:48:21;;;;;;;19.35;8.45;;;;;;;16.06;72.93;101993.28;5092452;28;19961;-57
2022/08/28 07:50:46;;;;;;;18.70;7.90;;;;;;;16.17;72.47;101993.88;5092070;28;20024;-56
2022/08/28 07:53:12;;;;;;;17.95;8.25;;;;;;;16.25;71.34;101991.44;5092074;28;20451;-55
2022/08/28 07:55:37;;;;;;;17.15;8.23;;;;;;;16.32;69.85;101997.41;5074045;28;20016;-55
2022/08/28 07:58:03;;;;;;;21.73;8.23;;;;;;;16.44;70.45;101991.25;5091623;28;20089;-55
2022/08/28 08:00:28;;;;;;;17.55;7.72;;;;;;;16.52;69.65;102008.06;5092104;28;20138;-55
2022/08/28 08:02:53;;;;;;;22.55;8.40;;;;;;;16.63;69.78;102003.03;5091851;28;20032;-56
2022/08/28 08:05:18;;;;;;;18.58;8.48;;;;;;;16.77;68.84;102005.75;5091453;28;20030;-55
2022/08/28 08:07:44;;;;;;;15.20;7.63;;;;;;;16.90;68.78;102000.38;5091166;28;20028;-55
2022/08/28 08:10:13;;;;;;;14.50;7.70;;;;;;;16.94;67.35;102007.03;5091313;28;20047;-55
2022/08/28 08:12:41;;;;;;;16.77;7.50;;;;;;;17.05;67.45;102008.38;5091961;28;20028;-55
2022/08/28 08:15:08;;;;;;;17.50;7.40;;;;;;;17.09;66.71;102008.56;5091702;28;20452;-55
2022/08/28 08:17:33;;;;;;;16.75;7.70;;;;;;;17.15;65.84;102010.88;5091814;28;20059;-59
2022/08/28 08:19:59;;;;;;;15.90;7.43;;;;;;;17.27;65.30;102021.47;5091704;28;20024;-55
2022/08/28 08:22:25;;;;;;;18.63;7.40;;;;;;;17.19;64.72;102015.84;5091987;28;20024;-56
2022/08/28 08:24:51;;;;;;;17.75;7.78;;;;;;;17.19;64.39;102010.25;5091559;28;20321;-55
2022/08/28 08:27:17;;;;;;;16.08;8.07;;;;;;;17.33;64.52;102024.97;5091752;28;20025;-55
2022/08/28 08:29:42;;;;;;;16.70;7.75;;;;;;;17.39;64.09;102011.63;5091480;28;20032;-55
2022/08/28 08:32:09;;;;;;;17.58;8.05;;;;;;;17.38;63.11;102012.78;5091671;28;20376;-55
2022/08/28 08:34:41;;;;;;;15.30;7.75;;;;;;;17.39;63.04;102018.06;5082571;28;20053;-56
2022/08/28 08:37:07;;;;;;;18.13;8.00;;;;;;;17.37;62.87;102022.34;5082046;28;20035;-55
2022/08/28 08:39:34;;;;;;;17.52;7.90;;;;;;;17.52;62.83;102018.25;5081811;28;20024;-55
2022/08/28 08:42:02;;;;;;;18.17;8.00;;;;;;;17.60;62.63;102015.47;5081049;28;20082;-55
2022/08/28 08:44:42;;;;;;;17.00;7.88;;;;;;;17.50;63.01;102012.97;5080034;28;20024;-55
2022/08/28 08:47:34;;;;;;;15.70;8.07;;;;;;;17.40;63.24;102018.88;5079544;28;20411;-56
2022/08/28 08:50:05;;;;;;;18.02;8.40;;;;;;;17.53;63.54;102017.09;5063066;28;20480;-56
2022/08/28 08:52:56;;;;;;;17.38;8.20;;;;;;;17.71;62.89;102015.16;5079767;28;20020;-55
2022/08/28 08:55:30;;;;;;;16.55;8.98;;;;;;;17.89;62.34;102016.84;5079371;28;20029;-55
2022/08/28 08:58:10;;;;;;;18.38;8.00;;;;;;;18.12;61.36;102016.72;5071479;28;20160;-54
2022/08/28 09:00:42;;;;;;;15.70;7.80;;;;;;;18.22;60.35;102007.16;5090805;28;20082;-55
2022/08/28 09:03:21;;;;;;;16.23;7.82;;;;;;;18.41;60.61;102018.03;5091651;28;20020;-55
2022/08/28 09:06:11;;;;;;;18.20;8.23;;;;;;;18.50;59.74;102018.00;5091419;28;20024;-56
2022/08/28 09:08:41;;;;;;;14.95;7.75;;;;;;;18.46;58.80;102014.22;5090575;28;20032;-56
2022/08/28 09:11:34;;;;;;;14.35;7.65;;;;;;;18.71;59.30;102004.09;5090643;28;20028;-55
2022/08/28 09:14:09;;;;;;;16.77;7.80;;;;;;;18.85;57.21;101999.13;5091040;28;20487;-55
2022/08/28 09:16:38;;;;;;;15.63;7.65;;;;;;;18.73;56.09;102015.00;5091564;28;20065;-56
2022/08/28 09:19:05;;;;;;;14.80;7.75;;;;;;;18.59;56.74;102016.00;5093322;28;20044;-55
2022/08/28 09:21:37;;;;;;;15.73;7.50;;;;;;;18.68;57.18;102013.19;5074777;28;20035;-55
2022/08/28 09:24:07;;;;;;;18.73;7.80;;;;;;;18.82;57.01;102011.00;5072395;28;20036;-55
2022/08/28 09:26:33;;;;;;;16.20;7.50;;;;;;;18.83;56.33;102003.41;5072448;28;20045;-56
2022/08/28 09:29:15;;;;;;;13.30;7.38;;;;;;;18.88;57.21;102008.81;5071733;28;20060;-55
2022/08/28 09:31:40;;;;;;;14.60;6.88;;;;;;;18.80;56.32;102010.50;5072404;28;20027;-55
2022/08/28 09:34:18;;;;;;;17.30;7.50;;;;;;;18.58;57.22;102008.75;5070482;28;20333;-54
2022/08/28 09:36:44;;;;;;;17.85;7.53;;;;;;;18.52;56.99;102008.09;5072266;28;20086;-55
2022/08/28 09:39:19;;;;;;;13.73;7.38;;;;;;;18.55;57.13;102006.63;5071831;28;20032;-53
2022/08/28 09:44:49;;;;;;;15.77;7.30;;;;;;;18.76;56.55;102008.69;5072476;28;20040;-54
2022/08/28 09:47:41;;;;;;;16.80;7.40;;;;;;;18.69;56.64;102012.03;5071184;28;20047;-54
2022/08/28 09:50:23;;;;;;;17.10;7.10;;;;;;;18.52;56.47;101996.06;5071446;28;20488;-54
2022/08/28 09:52:50;;;;;;;18.40;7.38;;;;;;;18.66;56.02;102007.91;5044922;28;20395;-54
2022/08/28 09:55:30;;;;;;;15.10;7.47;;;;;;;19.03;56.59;101996.28;5072033;28;20166;-55
2022/08/28 09:57:56;;;;;;;13.65;7.20;;;;;;;19.48;55.24;102004.13;5071765;28;20086;-55
2022/08/28 10:00:21;;;;;;;13.23;7.38;;;;;;;19.62;52.81;102003.06;5071730;28;20036;-55
2022/08/28 10:03:13;;;;;;;15.13;7.13;;;;;;;19.91;53.39;101996.59;5071742;28;20028;-55
2022/08/28 10:05:48;;;;;;;18.15;8.20;;;;;;;19.94;52.44;101997.88;5071816;28;20369;-54
2022/08/28 10:08:36;;;;;;;16.05;7.68;;;;;;;19.97;51.23;101991.59;5071808;28;20047;-54
2022/08/28 10:11:26;;;;;;;15.38;7.32;;;;;;;19.98;52.47;102004.47;5071482;28;20042;-56
2022/08/28 10:14:04;;;;;;;15.93;7.72;;;;;;;19.87;52.57;102000.44;5063807;28;20028;-55
2022/08/28 10:16:41;;;;;;;14.75;7.07;;;;;;;20.06;52.28;101997.16;5071489;28;20040;-55
2022/08/28 10:19:42;;;;;;;15.45;7.35;;;;;;;20.12;52.26;102009.00;5071276;28;20826;-55
2022/08/28 10:22:16;;;;;;;16.85;7.05;;;;;;;19.87;52.00;102012.50;5071501;28;20036;-54
2022/08/28 10:24:55;;;;;;;14.25;7.10;;;;;;;19.78;51.80;102006.91;5071417;28;20452;-55
2022/08/28 10:27:38;;;;;;;15.82;7.00;;;;;;;19.78;52.39;101998.47;5070952;28;20043;-55
2022/08/28 10:30:23;;;;;;;15.20;7.30;;;;;;;19.84;52.32;102010.34;5070703;28;20024;-55
2022/08/28 10:33:10;;;;;;;14.68;7.30;;;;;;;20.09;50.34;101996.44;5069216;28;20864;-55
2022/08/28 10:35:54;;;;;;;13.27;7.18;;;;;;;20.26;51.46;101999.09;5071415;28;20043;-55
2022/08/28 10:38:35;;;;;;;15.25;7.43;;;;;;;20.41;50.01;101989.19;5070993;28;20043;-54
2022/08/28 10:41:07;;;;;;;14.80;6.97;;;;;;;20.77;47.84;101995.31;5070832;28;20036;-55
2022/08/28 10:43:42;;;;;;;12.57;7.05;;;;;;;20.71;47.81;101996.69;5071019;28;20103;-55
2022/08/28 10:46:15;;;;;;;11.75;7.05;;;;;;;20.59;48.28;101997.47;5070995;28;20087;-55
2022/08/28 10:48:46;;;;;;;15.88;7.03;;;;;;;20.61;48.90;101992.31;5070574;28;20028;-55
2022/08/28 10:51:34;;;;;;;14.25;7.28;;;;;;;20.63;49.95;101994.78;5071042;28;20078;-54
2022/08/28 10:54:10;;;;;;;11.95;7.10;;;;;;;20.52;48.15;101998.03;5071386;28;20132;-55
2022/08/28 10:56:41;;;;;;;15.52;7.18;;;;;;;20.51;48.14;101999.19;5070791;28;20036;-55
2022/08/28 10:59:07;;;;;;;16.08;7.25;;;;;;;20.47;47.89;102003.03;5070556;28;20109;-55
2022/08/28 11:01:38;;;;;;;17.00;8.10;;;;;;;20.52;48.73;101997.19;5070100;28;20469;-55
2022/08/28 11:04:14;;;;;;;14.80;7.50;;;;;;;20.74;48.24;101996.00;5070530;28;20127;-55
2022/08/28 11:06:46;;;;;;;11.80;6.75;;;;;;;20.84;46.67;101995.53;5070521;28;20115;-55
2022/08/28 11:09:27;;;;;;;12.70;7.10;;;;;;;20.72;47.17;102001.94;5070509;28;20066;-55
2022/08/28 11:11:56;;;;;;;16.55;7.40;;;;;;;20.76;47.21;102002.09;5062777;28;20118;-55
2022/08/28 11:14:49;;;;;;;15.93;7.70;;;;;;;21.18;47.09;101993.47;5070452;28;20060;-54
2022/08/28 11:17:21;;;;;;;16.17;7.47;;;;;;;21.50;46.24;101999.31;5066495;28;20040;-55
2022/08/28 11:19:58;;;;;;;17.23;7.60;;;;;;;22.00;46.12;101996.41;5070544;28;20028;-55
2022/08/28 11:22:36;;;;;;;12.90;7.35;;;;;;;22.36;44.72;101996.63;5070378;28;20031;-56
2022/08/28 11:25:17;;;;;;;14.30;7.55;;;;;;;22.39;45.17;101993.06;5070593;28;20036;-56
2022/08/28 11:28:14;;;;;;;11.80;7.07;;;;;;;22.21;44.22;101999.03;5070295;28;20413;-55
2022/08/28 11:30:41;;;;;;;11.68;7.07;;;;;;;22.00;43.71;102006.88;5069277;28;20067;-55